Observation data for Seagraves on 02/12/2018      Previous  Date  Next       Current Mesonet Observations  Soil Data  Daily Summary Page  Observations in Plain Language
KSGV 120600Z 16003KT M03/M11 A3022 RMK A01 T10251114  RH  051%=      5-min Rain = 0
KSGV 120605Z 16003KT M03/M12 A3022 RMK A01 T10281116  RH  051%=      5-min Rain = 0
KSGV 120610Z 17003KT M03/M12 A3022 RMK A01 T10321120  RH  051%=      5-min Rain = 0
KSGV 120615Z 16003KT M04/M12 A3022 RMK A01 T10351122  RH  052%=      5-min Rain = 0
KSGV 120620Z 16003KT M04/M12 A3022 RMK A01 T10361118  RH  053%=      5-min Rain = 0
KSGV 120625Z 17003KT M03/M12 A3022 RMK A01 T10331116  RH  053%=      5-min Rain = 0
KSGV 120630Z 17003KT M03/M12 A3022 RMK A01 T10341121  RH  052%=      5-min Rain = 0
KSGV 120635Z 17003KT M04/M13 A3023 RMK A01 T10371125  RH  051%=      5-min Rain = 0
KSGV 120640Z 18003KT M04/M13 A3023 RMK A01 T10411128  RH  052%=      5-min Rain = 0
KSGV 120645Z 19003KT M05/M13 A3023 RMK A01 T10451126  RH  054%=      5-min Rain = 0
KSGV 120650Z 18003KT M05/M13 A3023 RMK A01 T10461129  RH  053%=      5-min Rain = 0
KSGV 120655Z 18004KT M05/M13 A3023 RMK A01 T10501131  RH  054%=      5-min Rain = 0
KSGV 120700Z 18004KT M05/M12 A3023 RMK A01 T10481124  RH  056%=      5-min Rain = 0
KSGV 120705Z 18004KT M04/M12 A3023 RMK A01 T10421121  RH  055%=      5-min Rain = 0
KSGV 120710Z 18004KT M04/M12 A3023 RMK A01 T10391117  RH  055%=      5-min Rain = 0
KSGV 120715Z 18004KT M04/M11 A3023 RMK A01 T10361113  RH  056%=      5-min Rain = 0
KSGV 120720Z 18004KT M04/M11 A3023 RMK A01 T10351114  RH  055%=      5-min Rain = 0
KSGV 120725Z 17003KT M04/M12 A3023 RMK A01 T10351115  RH  054%=      5-min Rain = 0
KSGV 120730Z 16003KT M03/M11 A3023 RMK A01 T10341112  RH  055%=      5-min Rain = 0
KSGV 120735Z 17003KT M03/M11 A3023 RMK A01 T10331113  RH  055%=      5-min Rain = 0
KSGV 120740Z 18003KT M03/M12 A3023 RMK A01 T10341115  RH  054%=      5-min Rain = 0
KSGV 120745Z 17003KT M04/M12 A3024 RMK A01 T10351117  RH  054%=      5-min Rain = 0
KSGV 120750Z 17003KT M04/M12 A3024 RMK A01 T10371118  RH  054%=      5-min Rain = 0
KSGV 120755Z 17004KT M04/M12 A3024 RMK A01 T10391120  RH  054%=      5-min Rain = 0
KSGV 120800Z 16004KT M04/M12 A3023 RMK A01 T10411119  RH  055%=      5-min Rain = 0
KSGV 120805Z 16003KT M04/M12 A3024 RMK A01 T10421119  RH  056%=      5-min Rain = 0
KSGV 120810Z 16004KT M04/M12 A3024 RMK A01 T10421116  RH  057%=      5-min Rain = 0
KSGV 120815Z 15004KT M04/M12 A3024 RMK A01 T10401115  RH  057%=      5-min Rain = 0
KSGV 120820Z 16004KT M04/M11 A3024 RMK A01 T10391114  RH  057%=      5-min Rain = 0
KSGV 120825Z 15004KT M04/M11 A3024 RMK A01 T10401114  RH  057%=      5-min Rain = 0
KSGV 120830Z 16005KT M04/M11 A3024 RMK A01 T10371112  RH  057%=      5-min Rain = 0
KSGV 120835Z 15006KT M03/M11 A3024 RMK A01 T10311109  RH  055%=      5-min Rain = 0
KSGV 120840Z 15005KT M03/M11 A3024 RMK A01 T10271111  RH  053%=      5-min Rain = 0
KSGV 120845Z 15005KT M03/M11 A3024 RMK A01 T10281112  RH  053%=      5-min Rain = 0
KSGV 120850Z 16005KT M03/M11 A3024 RMK A01 T10281111  RH  053%=      5-min Rain = 0
KSGV 120855Z 15005KT M03/M11 A3024 RMK A01 T10261110  RH  053%=      5-min Rain = 0
KSGV 120900Z 16005KT M02/M11 A3024 RMK A01 T10241111  RH  052%=      5-min Rain = 0
KSGV 120905Z 16006KT M02/M11 A3024 RMK A01 T10221111  RH  051%=      5-min Rain = 0
KSGV 120910Z 15006KT M02/M11 A3024 RMK A01 T10211111  RH  051%=      5-min Rain = 0
KSGV 120915Z 15005KT M02/M11 A3024 RMK A01 T10201112  RH  050%=      5-min Rain = 0
KSGV 120920Z 14005KT M02/M11 A3024 RMK A01 T10201111  RH  051%=      5-min Rain = 0
KSGV 120925Z 15005KT M02/M11 A3024 RMK A01 T10201110  RH  051%=      5-min Rain = 0
KSGV 120930Z 15005KT M02/M11 A3024 RMK A01 T10201109  RH  051%=      5-min Rain = 0
KSGV 120935Z 14005KT M02/M11 A3024 RMK A01 T10201108  RH  052%=      5-min Rain = 0
KSGV 120940Z 14004KT M02/M11 A3024 RMK A01 T10211106  RH  053%=      5-min Rain = 0
KSGV 120945Z 15005KT M02/M11 A3024 RMK A01 T10221107  RH  053%=      5-min Rain = 0
KSGV 120950Z 15005KT M02/M11 A3024 RMK A01 T10231107  RH  053%=      5-min Rain = 0
KSGV 120955Z 15004KT M02/M11 A3024 RMK A01 T10231106  RH  054%=      5-min Rain = 0
KSGV 121000Z 16004KT M02/M11 A3024 RMK A01 T10231106  RH  053%=      5-min Rain = 0
KSGV 121005Z 17004KT M02/M11 A3024 RMK A01 T10221107  RH  053%=      5-min Rain = 0
KSGV 121010Z 16004KT M02/M11 A3024 RMK A01 T10211110  RH  051%=      5-min Rain = 0
KSGV 121015Z 14005KT M02/M11 A3024 RMK A01 T10221108  RH  052%=      5-min Rain = 0
KSGV 121020Z 15004KT M02/M11 A3024 RMK A01 T10231108  RH  053%=      5-min Rain = 0
KSGV 121025Z 14004KT M02/M11 A3023 RMK A01 T10241108  RH  053%=      5-min Rain = 0
KSGV 121030Z 14004KT M03/M11 A3023 RMK A01 T10261107  RH  054%=      5-min Rain = 0
KSGV 121035Z 15004KT M03/M11 A3023 RMK A01 T10281109  RH  054%=      5-min Rain = 0
KSGV 121040Z 14004KT M03/M11 A3023 RMK A01 T10311110  RH  055%=      5-min Rain = 0
KSGV 121045Z 14004KT M03/M11 A3024 RMK A01 T10321110  RH  056%=      5-min Rain = 0
KSGV 121050Z 14004KT M03/M11 A3023 RMK A01 T10331110  RH  056%=      5-min Rain = 0
KSGV 121055Z 15004KT M04/M11 A3024 RMK A01 T10351110  RH  057%=      5-min Rain = 0
KSGV 121100Z 15004KT M04/M11 A3024 RMK A01 T10361110  RH  057%=      5-min Rain = 0
KSGV 121105Z 14004KT M04/M11 A3024 RMK A01 T10371110  RH  058%=      5-min Rain = 0
KSGV 121110Z 14004KT M04/M11 A3024 RMK A01 T10381109  RH  058%=      5-min Rain = 0
KSGV 121115Z 14003KT M04/M11 A3024 RMK A01 T10381109  RH  059%=      5-min Rain = 0
KSGV 121120Z 13003KT M04/M11 A3024 RMK A01 T10391110  RH  058%=      5-min Rain = 0
KSGV 121125Z 13003KT M04/M11 A3024 RMK A01 T10391112  RH  058%=      5-min Rain = 0
KSGV 121130Z 12002KT M04/M11 A3024 RMK A01 T10391113  RH  057%=      5-min Rain = 0
KSGV 121135Z 09002KT M04/M11 A3024 RMK A01 T10411114  RH  057%=      5-min Rain = 0
KSGV 121140Z 10002KT M04/M12 A3023 RMK A01 T10421115  RH  057%=      5-min Rain = 0
KSGV 121145Z 11003KT M04/M12 A3024 RMK A01 T10431115  RH  058%=      5-min Rain = 0
KSGV 121150Z 12003KT M04/M12 A3024 RMK A01 T10441115  RH  058%=      5-min Rain = 0
KSGV 121155Z 12003KT M04/M12 A3024 RMK A01 T10431117  RH  057%=      5-min Rain = 0
KSGV 121200Z 10003KT M04/M12 A3024 RMK A01 T10441118  RH  057%=      5-min Rain = 0
KSGV 121205Z 09003KT M05/M12 A3024 RMK A01 T10451117  RH  058%=      5-min Rain = 0
KSGV 121210Z 09003KT M05/M12 A3024 RMK A01 T10471117  RH  059%=      5-min Rain = 0
KSGV 121215Z 10004KT M05/M12 A3024 RMK A01 T10471115  RH  059%=      5-min Rain = 0
KSGV 121220Z 11004KT M05/M12 A3024 RMK A01 T10451115  RH  059%=      5-min Rain = 0
KSGV 121225Z 10003KT M05/M12 A3024 RMK A01 T10451116  RH  058%=      5-min Rain = 0
KSGV 121230Z 11004KT M05/M12 A3024 RMK A01 T10451117  RH  058%=      5-min Rain = 0
KSGV 121235Z 11004KT M05/M12 A3024 RMK A01 T10461117  RH  058%=      5-min Rain = 0
KSGV 121240Z 11004KT M05/M12 A3024 RMK A01 T10471118  RH  058%=      5-min Rain = 0
KSGV 121245Z 11005KT M05/M12 A3025 RMK A01 T10471118  RH  058%=      5-min Rain = 0
KSGV 121250Z 12004KT M05/M12 A3025 RMK A01 T10471118  RH  058%=      5-min Rain = 0
KSGV 121255Z 12004KT M05/M12 A3025 RMK A01 T10471117  RH  059%=      5-min Rain = 0
KSGV 121300Z 12003KT M05/M12 A3025 RMK A01 T10481117  RH  059%=      5-min Rain = 0
KSGV 121305Z 11002KT M05/M12 A3025 RMK A01 T10481117  RH  059%=      5-min Rain = 0
KSGV 121310Z 09002KT M05/M12 A3025 RMK A01 T10481117  RH  059%=      5-min Rain = 0
KSGV 121315Z 10002KT M05/M12 A3026 RMK A01 T10481118  RH  059%=      5-min Rain = 0
KSGV 121320Z 11001KT M05/M12 A3026 RMK A01 T10491118  RH  059%=      5-min Rain = 0
KSGV 121325Z 12003KT M05/M12 A3026 RMK A01 T10491117  RH  060%=      5-min Rain = 0
KSGV 121330Z 12002KT M05/M12 A3026 RMK A01 T10491117  RH  060%=      5-min Rain = 0
KSGV 121335Z 09002KT M05/M12 A3027 RMK A01 T10491118  RH  059%=      5-min Rain = 0
KSGV 121340Z 06002KT M05/M12 A3027 RMK A01 T10501118  RH  059%=      5-min Rain = 0
KSGV 121345Z 07002KT M05/M12 A3027 RMK A01 T10501118  RH  060%=      5-min Rain = 0
KSGV 121350Z 09003KT M05/M12 A3027 RMK A01 T10501117  RH  060%=      5-min Rain = 0
KSGV 121355Z 09004KT M05/M12 A3026 RMK A01 T10491117  RH  060%=      5-min Rain = 0
KSGV 121400Z 08004KT M05/M12 A3026 RMK A01 T10481116  RH  060%=      5-min Rain = 0
KSGV 121405Z 08004KT M05/M12 A3026 RMK A01 T10471116  RH  059%=      5-min Rain = 0
KSGV 121410Z 09004KT M05/M12 A3027 RMK A01 T10461116  RH  059%=      5-min Rain = 0
KSGV 121415Z 08004KT M05/M12 A3027 RMK A01 T10451116  RH  058%=      5-min Rain = 0
KSGV 121420Z 08004KT M04/M12 A3027 RMK A01 T10431116  RH  058%=      5-min Rain = 0
KSGV 121425Z 09004KT M04/M12 A3027 RMK A01 T10411115  RH  057%=      5-min Rain = 0
KSGV 121430Z 10004KT M04/M11 A3027 RMK A01 T10361114  RH  056%=      5-min Rain = 0
KSGV 121435Z 10005KT M03/M11 A3027 RMK A01 T10341113  RH  055%=      5-min Rain = 0
KSGV 121440Z 10004KT M03/M11 A3027 RMK A01 T10321113  RH  054%=      5-min Rain = 0
KSGV 121445Z 10005KT M03/M11 A3027 RMK A01 T10281113  RH  053%=      5-min Rain = 0
KSGV 121450Z 10005KT M02/M11 A3027 RMK A01 T10241112  RH  052%=      5-min Rain = 0
KSGV 121455Z 10005KT M02/M11 A3027 RMK A01 T10191110  RH  050%=      5-min Rain = 0
KSGV 121500Z 10005KT M01/M11 A3028 RMK A01 T10141110  RH  049%=      5-min Rain = 0
KSGV 121505Z 11005KT M01/M11 A3028 RMK A01 T10101109  RH  047%=      5-min Rain = 0
KSGV 121510Z 11006KT M01/M11 A3028 RMK A01 T10071109  RH  046%=      5-min Rain = 0
KSGV 121515Z 11006KT M01/M11 A3028 RMK A01 T10071111  RH  046%=      5-min Rain = 0
KSGV 121520Z 12006KT M01/M11 A3029 RMK A01 T10071110  RH  046%=      5-min Rain = 0
KSGV 121525Z 10006KT M01/M11 A3029 RMK A01 T10071110  RH  046%=      5-min Rain = 0
KSGV 121530Z 11008KT M01/M11 A3028 RMK A01 T10051114  RH  044%=      5-min Rain = 0
KSGV 121535Z 10007KT M00/M11 A3028 RMK A01 T10021114  RH  043%=      5-min Rain = 0
KSGV 121540Z 11009KT 00/M12 A3028 RMK A01 T00021118  RH  041%=      5-min Rain = 0
KSGV 121545Z 11007G12KT 01/M12 A3028 RMK A01 T00061119  RH  039%=      5-min Rain = 0
KSGV 121550Z 12009G14KT 01/M13 A3028 RMK A01 T00101127  RH  036%=      5-min Rain = 0
KSGV 121555Z 12010KT 01/M13 A3028 RMK A01 T00121131  RH  034%=      5-min Rain = 0
KSGV 121600Z 12010G15KT 01/M13 A3028 RMK A01 T00141131  RH  034%=      5-min Rain = 0
KSGV 121605Z 12010G15KT 02/M13 A3028 RMK A01 T00151132  RH  033%=      5-min Rain = 0
KSGV 121610Z 12008KT 02/M13 A3028 RMK A01 T00181129  RH  033%=      5-min Rain = 0
KSGV 121615Z 12009G14KT 02/M13 A3028 RMK A01 T00221133  RH  031%=      5-min Rain = 0
KSGV 121620Z 10009G14KT 02/M13 A3028 RMK A01 T00231134  RH  031%=      5-min Rain = 0
KSGV 121625Z 11009G15KT 03/M13 A3028 RMK A01 T00261134  RH  030%=      5-min Rain = 0
KSGV 121630Z 11010G15KT 02/M14 A3028 RMK A01 T00241136  RH  030%=      5-min Rain = 0
KSGV 121635Z 11009G14KT 02/M14 A3028 RMK A01 T00241135  RH  030%=      5-min Rain = 0
KSGV 121640Z 12009G14KT 03/M13 A3028 RMK A01 T00291133  RH  030%=      5-min Rain = 0
KSGV 121645Z 12008G14KT 03/M13 A3028 RMK A01 T00311133  RH  029%=      5-min Rain = 0
KSGV 121650Z 11009G15KT 03/M13 A3028 RMK A01 T00331132  RH  029%=      5-min Rain = 0
KSGV 121655Z 12009KT 03/M13 A3028 RMK A01 T00331132  RH  029%=      5-min Rain = 0
KSGV 121700Z 12010KT 04/M13 A3028 RMK A01 T00361131  RH  029%=      5-min Rain = 0
KSGV 121705Z 12009G14KT 04/M13 A3028 RMK A01 T00351129  RH  029%=      5-min Rain = 0
KSGV 121710Z 11010G15KT 04/M13 A3028 RMK A01 T00371130  RH  029%=      5-min Rain = 0
KSGV 121715Z 13010G16KT 04/M13 A3028 RMK A01 T00391129  RH  029%=      5-min Rain = 0
KSGV 121720Z 12009G15KT 04/M13 A3028 RMK A01 T00401128  RH  029%=      5-min Rain = 0
KSGV 121725Z 13010G15KT 04/M13 A3028 RMK A01 T00421127  RH  028%=      5-min Rain = 0
KSGV 121730Z 13009G14KT 04/M13 A3028 RMK A01 T00441127  RH  028%=      5-min Rain = 0
KSGV 121735Z 12009G15KT 05/M13 A3027 RMK A01 T00451126  RH  028%=      5-min Rain = 0
KSGV 121740Z 12010G17KT 05/M13 A3027 RMK A01 T00451125  RH  028%=      5-min Rain = 0
KSGV 121745Z 12009G14KT 05/M12 A3027 RMK A01 T00481122  RH  028%=      5-min Rain = 0
KSGV 121750Z 12010G16KT 05/M12 A3027 RMK A01 T00471121  RH  029%=      5-min Rain = 0
KSGV 121755Z 13008G14KT 05/M12 A3027 RMK A01 T00501117  RH  029%=      5-min Rain = 0
KSGV 121800Z 12009G15KT 05/M12 A3026 RMK A01 T00501115  RH  029%=      5-min Rain = 0
KSGV 121805Z 12010G15KT 05/M12 A3026 RMK A01 T00521115  RH  029%=      5-min Rain = 0
KSGV 121810Z 12011G17KT 05/M11 A3026 RMK A01 T00521110  RH  030%=      5-min Rain = 0
KSGV 121815Z 12011G18KT 06/M11 A3025 RMK A01 T00551110  RH  030%=      5-min Rain = 0
KSGV 121820Z 13009G16KT 06/M11 A3025 RMK A01 T00551107  RH  031%=      5-min Rain = 0
KSGV 121825Z 12009G16KT 06/M11 A3025 RMK A01 T00601105  RH  030%=      5-min Rain = 0
KSGV 121830Z 13011G17KT 06/M10 A3025 RMK A01 T00591103  RH  031%=      5-min Rain = 0
KSGV 121835Z 11009G15KT 06/M10 A3024 RMK A01 T00581102  RH  031%=      5-min Rain = 0
KSGV 121840Z 12010G16KT 06/M10 A3024 RMK A01 T00591101  RH  031%=      5-min Rain = 0
KSGV 121845Z 12010KT 06/M10 A3024 RMK A01 T00631099  RH  031%=      5-min Rain = 0
KSGV 121850Z 12012G18KT 06/M10 A3023 RMK A01 T00621100  RH  031%=      5-min Rain = 0
KSGV 121855Z 13012G19KT 06/M10 A3023 RMK A01 T00621097  RH  031%=      5-min Rain = 0
KSGV 121900Z 13011G17KT 07/M10 A3023 RMK A01 T00651096  RH  031%=      5-min Rain = 0
KSGV 121905Z 13010G17KT 07/M10 A3022 RMK A01 T00681095  RH  031%=      5-min Rain = 0
KSGV 121910Z 13011G17KT 07/M10 A3022 RMK A01 T00671095  RH  031%=      5-min Rain = 0
KSGV 121915Z 12010G17KT 07/M09 A3021 RMK A01 T00701094  RH  031%=      5-min Rain = 0
KSGV 121920Z 13010G17KT 07/M09 A3021 RMK A01 T00721093  RH  030%=      5-min Rain = 0
KSGV 121925Z 15012G17KT 08/M09 A3021 RMK A01 T00761091  RH  030%=      5-min Rain = 0
KSGV 121930Z 14013G18KT 07/M09 A302 RMK A01 T00711093  RH  030%=      5-min Rain = 0
KSGV 121935Z 14012G19KT 07/M09 A302 RMK A01 T00721092  RH  031%=      5-min Rain = 0
KSGV 121940Z 13010G18KT 07/M09 A302 RMK A01 T00731092  RH  030%=      5-min Rain = 0
KSGV 121945Z 14012KT 08/M09 A302 RMK A01 T00751091  RH  030%=      5-min Rain = 0
KSGV 121950Z 13011G16KT 08/M09 A3019 RMK A01 T00761091  RH  030%=      5-min Rain = 0
KSGV 121955Z 14011G18KT 07/M09 A3019 RMK A01 T00741092  RH  030%=      5-min Rain = 0
KSGV 122000Z 14012G17KT 08/M09 A3018 RMK A01 T00761092  RH  030%=      5-min Rain = 0
KSGV 122005Z 13012G19KT 08/M09 A3018 RMK A01 T00781092  RH  029%=      5-min Rain = 0
KSGV 122010Z 12012G18KT 07/M09 A3018 RMK A01 T00741092  RH  030%=      5-min Rain = 0
KSGV 122015Z 14010G15KT 08/M09 A3018 RMK A01 T00801091  RH  029%=      5-min Rain = 0
KSGV 122020Z 14012G18KT 08/M09 A3017 RMK A01 T00821091  RH  029%=      5-min Rain = 0
KSGV 122025Z 13011G18KT 08/M09 A3017 RMK A01 T00811091  RH  029%=      5-min Rain = 0
KSGV 122030Z 14013G20KT 08/M09 A3017 RMK A01 T00811091  RH  029%=      5-min Rain = 0
KSGV 122035Z 12011G18KT 08/M09 A3017 RMK A01 T00831090  RH  029%=      5-min Rain = 0
KSGV 122040Z 13009G15KT 08/M09 A3016 RMK A01 T00841089  RH  029%=      5-min Rain = 0
KSGV 122045Z 13009KT 09/M09 A3016 RMK A01 T00871089  RH  028%=      5-min Rain = 0
KSGV 122050Z 13008G15KT 08/M09 A3016 RMK A01 T00831089  RH  029%=      5-min Rain = 0
KSGV 122055Z 13011KT 08/M09 A3016 RMK A01 T00841088  RH  029%=      5-min Rain = 0
KSGV 122100Z 13011G16KT 09/M09 A3015 RMK A01 T00891087  RH  028%=      5-min Rain = 0
KSGV 122105Z 13011G17KT 09/M09 A3015 RMK A01 T00921086  RH  028%=      5-min Rain = 0
KSGV 122110Z 14011G18KT 10/M09 A3015 RMK A01 T00951086  RH  027%=      5-min Rain = 0
KSGV 122115Z 13010G16KT 09/M09 A3015 RMK A01 T00931087  RH  027%=      5-min Rain = 0
KSGV 122120Z 13011G19KT 09/M09 A3015 RMK A01 T00901087  RH  028%=      5-min Rain = 0
KSGV 122125Z 14012KT 09/M09 A3015 RMK A01 T00871087  RH  029%=      5-min Rain = 0
KSGV 122130Z 12009G14KT 09/M09 A3015 RMK A01 T00881087  RH  028%=      5-min Rain = 0
KSGV 122135Z 13011G18KT 08/M09 A3015 RMK A01 T00841087  RH  029%=      5-min Rain = 0
KSGV 122140Z 13009KT 08/M09 A3015 RMK A01 T00841087  RH  029%=      5-min Rain = 0
KSGV 122145Z 14010G17KT 09/M09 A3015 RMK A01 T00881087  RH  028%=      5-min Rain = 0
KSGV 122150Z 13010G15KT 09/M09 A3015 RMK A01 T00861087  RH  029%=      5-min Rain = 0
KSGV 122155Z 14011G16KT 09/M09 A3015 RMK A01 T00901086  RH  028%=      5-min Rain = 0
KSGV 122200Z 12011G16KT 09/M09 A3015 RMK A01 T00901086  RH  028%=      5-min Rain = 0
KSGV 122205Z 12010G16KT 09/M09 A3015 RMK A01 T00871087  RH  029%=      5-min Rain = 0
KSGV 122210Z 13012G19KT 09/M09 A3015 RMK A01 T00861086  RH  029%=      5-min Rain = 0
KSGV 122215Z 13010G18KT 09/M09 A3015 RMK A01 T00881085  RH  029%=      5-min Rain = 0
KSGV 122220Z 13010G15KT 09/M08 A3015 RMK A01 T00931084  RH  028%=      5-min Rain = 0
KSGV 122225Z 14010G16KT 10/M08 A3015 RMK A01 T00961084  RH  028%=      5-min Rain = 0
KSGV 122230Z 14012G20KT 10/M08 A3015 RMK A01 T00971082  RH  028%=      5-min Rain = 0
KSGV 122235Z 14012G17KT 10/M08 A3015 RMK A01 T00981079  RH  028%=      5-min Rain = 0
KSGV 122240Z 15013G19KT 10/M08 A3015 RMK A01 T00971079  RH  029%=      5-min Rain = 0
KSGV 122245Z 15012G20KT 10/M08 A3015 RMK A01 T00981081  RH  028%=      5-min Rain = 0
KSGV 122250Z 13011G16KT 10/M08 A3015 RMK A01 T00981081  RH  028%=      5-min Rain = 0
KSGV 122255Z 14011G16KT 10/M08 A3015 RMK A01 T00981081  RH  028%=      5-min Rain = 0
KSGV 122300Z 14010G17KT 10/M08 A3015 RMK A01 T00981082  RH  028%=      5-min Rain = 0
KSGV 122305Z 13011G16KT 09/M08 A3015 RMK A01 T00931084  RH  028%=      5-min Rain = 0
KSGV 122310Z 13012G17KT 10/M08 A3015 RMK A01 T00951083  RH  028%=      5-min Rain = 0
KSGV 122315Z 13011G16KT 10/M08 A3015 RMK A01 T00951084  RH  028%=      5-min Rain = 0
KSGV 122320Z 12010G18KT 10/M08 A3015 RMK A01 T00961084  RH  028%=      5-min Rain = 0
KSGV 122325Z 12011G19KT 10/M08 A3015 RMK A01 T00951084  RH  028%=      5-min Rain = 0
KSGV 122330Z 12012G17KT 09/M08 A3015 RMK A01 T00941083  RH  028%=      5-min Rain = 0
KSGV 122335Z 13010G16KT 09/M08 A3014 RMK A01 T00931083  RH  028%=      5-min Rain = 0
KSGV 122340Z 13011G18KT 10/M08 A3014 RMK A01 T00951080  RH  029%=      5-min Rain = 0
KSGV 122345Z 14012G19KT 10/M08 A3015 RMK A01 T00961077  RH  029%=      5-min Rain = 0
KSGV 122350Z 13012G17KT 09/M08 A3014 RMK A01 T00941077  RH  030%=      5-min Rain = 0
KSGV 122355Z 13010G15KT 09/M08 A3015 RMK A01 T00931077  RH  030%=      5-min Rain = 0
KSGV 130000Z 13012KT 09/M08 A3015 RMK A01 T00921078  RH  030%=      5-min Rain = 0
KSGV 130005Z 13011KT 09/M08 A3015 RMK A01 T00901078  RH  030%=      5-min Rain = 0
KSGV 130010Z 13010G17KT 09/M08 A3015 RMK A01 T00891079  RH  030%=      5-min Rain = 0
KSGV 130015Z 14011G17KT 09/M08 A3015 RMK A01 T00871079  RH  030%=      5-min Rain = 0
KSGV 130020Z 13010G15KT 09/M08 A3015 RMK A01 T00861080  RH  031%=      5-min Rain = 0
KSGV 130025Z 13009G14KT 08/M08 A3015 RMK A01 T00831080  RH  031%=      5-min Rain = 0
KSGV 130030Z 13008G13KT 08/M08 A3015 RMK A01 T00811081  RH  031%=      5-min Rain = 0
KSGV 130035Z 13008KT 08/M08 A3015 RMK A01 T00781081  RH  032%=      5-min Rain = 0
KSGV 130040Z 13008KT 08/M08 A3015 RMK A01 T00761082  RH  032%=      5-min Rain = 0
KSGV 130045Z 13008KT 07/M08 A3016 RMK A01 T00741083  RH  032%=      5-min Rain = 0
KSGV 130050Z 13007KT 07/M08 A3016 RMK A01 T00721084  RH  032%=      5-min Rain = 0
KSGV 130055Z 13006KT 07/M08 A3016 RMK A01 T00691084  RH  033%=      5-min Rain = 0
KSGV 130100Z 12006G11KT 07/M08 A3016 RMK A01 T00661084  RH  034%=      5-min Rain = 0
KSGV 130105Z 13006G11KT 06/M08 A3017 RMK A01 T00641083  RH  034%=      5-min Rain = 0
KSGV 130110Z 13006KT 06/M08 A3017 RMK A01 T00621083  RH  035%=      5-min Rain = 0
KSGV 130115Z 13007KT 06/M08 A3017 RMK A01 T00611083  RH  035%=      5-min Rain = 0
KSGV 130120Z 13006KT 06/M08 A3017 RMK A01 T00601083  RH  036%=      5-min Rain = 0
KSGV 130125Z 13005KT 06/M08 A3018 RMK A01 T00571084  RH  036%=      5-min Rain = 0
KSGV 130130Z 13006KT 06/M08 A3018 RMK A01 T00551083  RH  037%=      5-min Rain = 0
KSGV 130135Z 13006KT 06/M08 A3019 RMK A01 T00551082  RH  037%=      5-min Rain = 0
KSGV 130140Z 12006KT 06/M08 A3019 RMK A01 T00551082  RH  037%=      5-min Rain = 0
KSGV 130145Z 12006KT 05/M08 A3019 RMK A01 T00541083  RH  037%=      5-min Rain = 0
KSGV 130150Z 12006KT 05/M08 A3019 RMK A01 T00521082  RH  038%=      5-min Rain = 0
KSGV 130155Z 12006KT 05/M08 A3019 RMK A01 T00521082  RH  038%=      5-min Rain = 0
KSGV 130200Z 11006KT 05/M08 A3019 RMK A01 T00511082  RH  038%=      5-min Rain = 0
KSGV 130205Z 09004KT 05/M08 A302 RMK A01 T00481083  RH  038%=      5-min Rain = 0
KSGV 130210Z 10004KT 04/M08 A302 RMK A01 T00441082  RH  040%=      5-min Rain = 0
KSGV 130215Z 11005KT 04/M08 A302 RMK A01 T00401082  RH  041%=      5-min Rain = 0
KSGV 130220Z 11006KT 04/M08 A302 RMK A01 T00381082  RH  042%=      5-min Rain = 0
KSGV 130225Z 11007KT 04/M08 A302 RMK A01 T00371082  RH  042%=      5-min Rain = 0
KSGV 130230Z 12008KT 04/M08 A302 RMK A01 T00381084  RH  041%=      5-min Rain = 0
KSGV 130235Z 12008KT 04/M09 A302 RMK A01 T00391087  RH  040%=      5-min Rain = 0
KSGV 130240Z 12008KT 04/M09 A302 RMK A01 T00391088  RH  039%=      5-min Rain = 0
KSGV 130245Z 12007KT 04/M09 A302 RMK A01 T00381089  RH  039%=      5-min Rain = 0
KSGV 130250Z 12008KT 04/M09 A302 RMK A01 T00371089  RH  040%=      5-min Rain = 0
KSGV 130255Z 12009KT 04/M09 A302 RMK A01 T00371089  RH  040%=      5-min Rain = 0
KSGV 130300Z 12007G12KT 04/M09 A302 RMK A01 T00371089  RH  040%=      5-min Rain = 0
KSGV 130305Z 12008G13KT 04/M09 A302 RMK A01 T00371087  RH  040%=      5-min Rain = 0
KSGV 130310Z 12008KT 04/M09 A302 RMK A01 T00371087  RH  040%=      5-min Rain = 0
KSGV 130315Z 12008G13KT 04/M09 A302 RMK A01 T00371086  RH  041%=      5-min Rain = 0
KSGV 130320Z 12008KT 04/M09 A3021 RMK A01 T00361087  RH  041%=      5-min Rain = 0
KSGV 130325Z 12007KT 03/M09 A3021 RMK A01 T00331087  RH  041%=      5-min Rain = 0
KSGV 130330Z 12008KT 03/M09 A3021 RMK A01 T00301087  RH  042%=      5-min Rain = 0
KSGV 130335Z 12008KT 03/M09 A3021 RMK A01 T00301087  RH  042%=      5-min Rain = 0
KSGV 130340Z 11006G11KT 03/M09 A3021 RMK A01 T00281087  RH  043%=      5-min Rain = 0
KSGV 130345Z 11006KT 03/M09 A3021 RMK A01 T00271087  RH  043%=      5-min Rain = 0
KSGV 130350Z 11006KT 03/M09 A3021 RMK A01 T00261087  RH  044%=      5-min Rain = 0
KSGV 130355Z 12007KT 03/M09 A3021 RMK A01 T00251087  RH  044%=      5-min Rain = 0
KSGV 130400Z 12007G12KT 03/M09 A3021 RMK A01 T00251085  RH  045%=      5-min Rain = 0
KSGV 130405Z 12009KT 03/M09 A3021 RMK A01 T00261085  RH  044%=      5-min Rain = 0
KSGV 130410Z 12009KT 03/M09 A3021 RMK A01 T00261085  RH  044%=      5-min Rain = 0
KSGV 130415Z 12008KT 02/M09 A3021 RMK A01 T00241085  RH  045%=      5-min Rain = 0
KSGV 130420Z 11008KT 02/M09 A3021 RMK A01 T00221085  RH  045%=      5-min Rain = 0
KSGV 130425Z 11008KT 02/M09 A3021 RMK A01 T00221085  RH  046%=      5-min Rain = 0
KSGV 130430Z 11007KT 02/M09 A3021 RMK A01 T00201085  RH  046%=      5-min Rain = 0
KSGV 130435Z 10007KT 02/M08 A3021 RMK A01 T00181084  RH  047%=      5-min Rain = 0
KSGV 130440Z 10006G11KT 02/M08 A3021 RMK A01 T00171083  RH  048%=      5-min Rain = 0
KSGV 130445Z 11007KT 02/M08 A3021 RMK A01 T00171083  RH  048%=      5-min Rain = 0
KSGV 130450Z 12007KT 02/M08 A3021 RMK A01 T00151084  RH  049%=      5-min Rain = 0
KSGV 130455Z 12007KT 01/M08 A3021 RMK A01 T00131084  RH  049%=      5-min Rain = 0
KSGV 130500Z 12008KT 01/M08 A3021 RMK A01 T00141083  RH  049%=      5-min Rain = 0
KSGV 130505Z 12007KT 01/M08 A3021 RMK A01 T00141083  RH  049%=      5-min Rain = 0
KSGV 130510Z 12007G12KT 01/M08 A3021 RMK A01 T00141082  RH  049%=      5-min Rain = 0
KSGV 130515Z 11008KT 02/M08 A3021 RMK A01 T00151081  RH  049%=      5-min Rain = 0
KSGV 130520Z 12007KT 02/M08 A3021 RMK A01 T00151081  RH  049%=      5-min Rain = 0
KSGV 130525Z 12008KT 02/M08 A3021 RMK A01 T00161080  RH  050%=      5-min Rain = 0
KSGV 130530Z 12008KT 02/M08 A3021 RMK A01 T00161080  RH  049%=      5-min Rain = 0
KSGV 130535Z 12007KT 02/M08 A3021 RMK A01 T00171080  RH  049%=      5-min Rain = 0
KSGV 130540Z 12007KT 02/M08 A3021 RMK A01 T00161080  RH  049%=      5-min Rain = 0
KSGV 130545Z 12007KT 01/M08 A3021 RMK A01 T00141080  RH  050%=      5-min Rain = 0
KSGV 130550Z 12007KT 01/M08 A3021 RMK A01 T00141080  RH  050%=      5-min Rain = 0
KSGV 130555Z 12006KT 01/M08 A3021 RMK A01 T00141080  RH  050%=      5-min Rain = 0

Page generated in 0.0095 seconds.